Time;durP1;ratioP1;P1;durP2;ratioP2;P2;SDS_P1;SDS_P2;PMS_P1;PMS_P2;Temp;Humidity;BMP_temperature;BMP_pressure;BME280_temperature;BME280_humidity;BME280_pressure;Samples;Min_cycle;Max_cycle;Signal;HPM_P1;HPM_P2
2023/12/25 00:00:09;;;;;;;1.70;0.63;;;10.20;99.90;;;;;;4968185;28;20032;-70
2023/12/25 00:02:35;;;;;;;0.80;0.57;;;10.20;99.90;;;;;;4958772;28;20520;-70
2023/12/25 00:05:01;;;;;;;1.25;0.65;;;10.20;99.90;;;;;;4968554;28;20098;-70
2023/12/25 00:07:26;;;;;;;1.38;0.68;;;10.30;99.90;;;;;;4960522;28;20098;-73
2023/12/25 00:09:52;;;;;;;2.40;0.70;;;10.30;99.90;;;;;;4976909;28;20063;-70
2023/12/25 00:12:18;;;;;;;1.50;0.68;;;10.30;99.90;;;;;;4972605;28;20034;-70
2023/12/25 00:14:44;;;;;;;1.02;0.50;;;10.30;99.90;;;;;;4967158;28;20359;-70
2023/12/25 00:17:10;;;;;;;2.17;0.60;;;10.30;99.90;;;;;;4978420;28;20031;-69
2023/12/25 00:19:37;;;;;;;1.35;0.75;;;10.30;99.90;;;;;;4966138;28;20031;-69
2023/12/25 00:22:02;;;;;;;1.65;0.77;;;10.40;99.90;;;;;;4967724;28;20043;-69
2023/12/25 00:24:28;;;;;;;3.80;0.90;;;10.40;99.90;;;;;;4957606;28;20127;-71
2023/12/25 00:26:54;;;;;;;2.08;0.80;;;10.40;99.90;;;;;;4965625;28;20350;-73
2023/12/25 00:29:19;;;;;;;0.80;0.73;;;10.40;99.90;;;;;;4969830;28;20050;-71
2023/12/25 00:31:45;;;;;;;0.65;0.43;;;10.40;99.90;;;;;;4967242;28;20086;-72
2023/12/25 00:34:10;;;;;;;1.65;0.65;;;10.40;99.90;;;;;;4961378;28;20412;-69
2023/12/25 00:36:36;;;;;;;1.48;0.65;;;10.40;99.90;;;;;;4963034;28;20035;-71
2023/12/25 00:39:02;;;;;;;1.65;0.60;;;10.40;99.90;;;;;;4973922;28;20038;-70
2023/12/25 00:41:30;;;;;;;1.15;0.63;;;10.30;99.90;;;;;;4971117;28;20054;-72
2023/12/25 00:43:57;;;;;;;1.33;0.52;;;10.40;99.90;;;;;;4951502;29;20106;-70
2023/12/25 00:46:23;;;;;;;0.68;0.50;;;10.30;99.90;;;;;;4961001;28;20134;-75
2023/12/25 00:48:49;;;;;;;2.53;0.57;;;10.40;99.90;;;;;;4967652;28;20058;-70
2023/12/25 00:51:14;;;;;;;1.98;0.65;;;10.40;99.90;;;;;;4960417;28;20097;-71
2023/12/25 00:53:40;;;;;;;2.80;0.98;;;10.50;99.90;;;;;;4957691;28;20038;-69
2023/12/25 00:56:06;;;;;;;0.73;0.55;;;10.50;99.90;;;;;;4961071;28;20035;-72
2023/12/25 00:58:32;;;;;;;2.08;0.93;;;10.40;99.90;;;;;;4969453;28;20130;-71
2023/12/25 01:00:57;;;;;;;1.52;0.65;;;10.40;99.90;;;;;;4959943;28;20118;-70
2023/12/25 01:03:23;;;;;;;3.13;0.70;;;10.40;99.90;;;;;;4956666;28;20042;-73
2023/12/25 01:05:48;;;;;;;2.67;0.95;;;10.30;99.90;;;;;;4962549;28;20015;-73
2023/12/25 01:08:14;;;;;;;2.00;0.70;;;10.30;99.90;;;;;;4971675;28;20023;-71
2023/12/25 01:10:39;;;;;;;1.13;0.50;;;10.40;99.90;;;;;;4968945;28;20037;-71
2023/12/25 01:13:05;;;;;;;1.17;0.43;;;10.40;99.90;;;;;;4958017;28;20432;-70
2023/12/25 01:15:31;;;;;;;0.60;0.52;;;10.40;99.90;;;;;;4965343;28;20050;-70
2023/12/25 01:17:56;;;;;;;1.88;1.10;;;10.30;99.90;;;;;;4967696;28;20047;-69
2023/12/25 01:20:22;;;;;;;0.77;0.50;;;10.30;99.90;;;;;;4958252;28;20477;-73
2023/12/25 01:22:47;;;;;;;1.65;0.80;;;10.20;99.90;;;;;;4965634;28;20026;-70
2023/12/25 01:25:13;;;;;;;0.93;0.60;;;10.20;99.90;;;;;;4970137;28;20380;-70
2023/12/25 01:27:41;;;;;;;1.75;0.60;;;10.20;99.90;;;;;;4968224;28;20023;-70
2023/12/25 01:30:11;;;;;;;2.92;0.90;;;10.20;99.90;;;;;;4959509;28;20035;-70
2023/12/25 01:32:37;;;;;;;0.73;0.60;;;10.20;99.90;;;;;;4967318;28;20488;-70
2023/12/25 01:35:04;;;;;;;0.43;0.40;;;10.10;99.90;;;;;;4971478;28;20038;-70
2023/12/25 01:37:29;;;;;;;2.30;0.90;;;10.00;99.90;;;;;;4954680;28;20043;-70
2023/12/25 01:39:55;;;;;;;1.90;0.60;;;9.90;99.90;;;;;;4965102;28;20035;-69
2023/12/25 01:42:21;;;;;;;1.13;0.50;;;9.90;99.90;;;;;;4961179;28;20535;-72
2023/12/25 01:44:47;;;;;;;0.90;0.68;;;9.90;99.90;;;;;;4971414;28;20034;-69
2023/12/25 01:47:15;;;;;;;3.45;0.85;;;9.80;99.90;;;;;;4963764;28;20534;-69
2023/12/25 01:49:41;;;;;;;1.05;0.50;;;9.80;99.90;;;;;;4958225;28;20071;-69
2023/12/25 01:52:07;;;;;;;1.83;0.43;;;9.70;99.90;;;;;;4972344;28;20106;-69
2023/12/25 01:54:34;;;;;;;2.78;0.80;;;9.70;99.90;;;;;;4970213;28;20050;-69
2023/12/25 01:57:00;;;;;;;1.17;0.65;;;9.70;99.90;;;;;;4966315;28;20031;-69
2023/12/25 01:59:28;;;;;;;2.65;0.70;;;9.60;99.90;;;;;;4966674;28;20030;-74
2023/12/25 02:01:54;;;;;;;2.67;1.83;;;9.70;99.90;;;;;;4976698;28;20027;-69
2023/12/25 02:04:20;;;;;;;2.53;0.98;;;9.80;99.90;;;;;;4972010;28;20029;-70
2023/12/25 02:06:46;;;;;;;1.98;0.55;;;9.70;99.90;;;;;;4977878;28;20027;-70
2023/12/25 02:09:13;;;;;;;2.22;0.50;;;9.70;99.90;;;;;;4981031;28;20030;-70
2023/12/25 02:11:42;;;;;;;2.20;0.70;;;9.60;99.90;;;;;;4965143;28;20099;-69
2023/12/25 02:14:09;;;;;;;0.85;0.50;;;9.80;99.90;;;;;;4958315;28;20050;-69
2023/12/25 02:16:36;;;;;;;1.70;0.52;;;9.70;99.90;;;;;;4972760;28;20051;-70
2023/12/25 02:19:03;;;;;;;1.48;0.90;;;9.70;99.90;;;;;;4974227;28;20039;-70
2023/12/25 02:21:29;;;;;;;1.23;1.00;;;9.70;99.90;;;;;;4964544;28;20110;-69
2023/12/25 02:23:59;;;;;;;2.28;0.93;;;9.60;99.90;;;;;;4971264;28;20536;-70
2023/12/25 02:26:25;;;;;;;3.92;0.70;;;9.50;99.90;;;;;;4966549;28;20035;-75
2023/12/25 02:28:50;;;;;;;1.42;0.50;;;9.50;99.90;;;;;;4964467;28;20041;-69
2023/12/25 02:31:17;;;;;;;1.08;0.50;;;9.40;99.90;;;;;;4968945;28;20089;-70
2023/12/25 02:33:43;;;;;;;0.77;0.47;;;9.50;99.90;;;;;;4969827;28;20034;-71
2023/12/25 02:36:08;;;;;;;1.20;0.52;;;9.50;99.90;;;;;;4969357;28;20028;-69
2023/12/25 02:38:34;;;;;;;0.85;0.40;;;9.40;99.90;;;;;;4963584;28;20413;-69
2023/12/25 02:41:00;;;;;;;2.00;0.70;;;9.40;99.90;;;;;;4971272;28;20038;-69
2023/12/25 02:43:25;;;;;;;1.42;0.60;;;9.40;99.90;;;;;;4971578;28;20527;-75
2023/12/25 02:45:51;;;;;;;1.70;0.90;;;9.40;99.90;;;;;;4958688;28;20113;-69
2023/12/25 02:48:16;;;;;;;1.20;0.70;;;9.40;99.90;;;;;;4964352;28;20031;-69
2023/12/25 02:50:42;;;;;;;4.68;0.65;;;9.40;99.90;;;;;;4962156;28;20031;-69
2023/12/25 02:53:07;;;;;;;1.02;0.50;;;9.60;99.90;;;;;;4966147;28;20046;-69
2023/12/25 02:55:33;;;;;;;1.00;0.60;;;9.60;99.90;;;;;;4964077;28;20027;-69
2023/12/25 02:57:59;;;;;;;2.75;0.82;;;9.60;99.90;;;;;;4964270;28;20806;-70
2023/12/25 03:00:24;;;;;;;1.50;0.55;;;9.50;99.90;;;;;;4964635;28;20474;-74
2023/12/25 03:02:50;;;;;;;0.45;0.45;;;9.50;99.90;;;;;;4967256;28;20023;-70
2023/12/25 03:05:16;;;;;;;1.52;0.55;;;9.60;99.90;;;;;;4965919;28;20479;-71
2023/12/25 03:07:41;;;;;;;1.55;0.50;;;9.50;99.90;;;;;;4962383;28;20657;-69
2023/12/25 03:10:07;;;;;;;0.85;0.60;;;9.50;99.90;;;;;;4964735;28;20086;-69
2023/12/25 03:12:33;;;;;;;1.50;0.90;;;9.50;99.90;;;;;;4966282;28;20035;-71
2023/12/25 03:14:58;;;;;;;1.13;0.45;;;9.40;99.90;;;;;;4964787;28;20065;-71
2023/12/25 03:17:24;;;;;;;0.60;0.40;;;9.50;99.90;;;;;;4960955;28;20038;-74
2023/12/25 03:19:49;;;;;;;1.58;0.40;;;9.50;99.90;;;;;;4965806;28;20102;-71
2023/12/25 03:22:15;;;;;;;1.15;0.32;;;9.50;99.90;;;;;;4965248;28;20027;-71
2023/12/25 03:24:40;;;;;;;0.45;0.38;;;9.60;99.90;;;;;;4962512;28;20026;-72
2023/12/25 03:27:06;;;;;;;1.63;0.40;;;9.50;99.90;;;;;;4964964;28;20030;-70
2023/12/25 03:29:32;;;;;;;0.82;0.60;;;9.50;99.90;;;;;;4962094;28;20037;-71
2023/12/25 03:31:57;;;;;;;0.90;0.28;;;9.50;99.90;;;;;;4971374;28;20397;-70
2023/12/25 03:34:23;;;;;;;0.75;0.40;;;9.50;99.90;;;;;;4966197;28;20102;-76
2023/12/25 03:36:48;;;;;;;2.15;0.60;;;9.40;99.90;;;;;;4963041;28;20412;-71
2023/12/25 03:39:14;;;;;;;1.13;0.60;;;9.30;99.90;;;;;;4968031;28;20022;-70
2023/12/25 03:41:40;;;;;;;0.75;0.63;;;9.30;99.90;;;;;;4968443;28;20035;-70
2023/12/25 03:44:05;;;;;;;0.52;0.38;;;9.30;99.90;;;;;;4968445;28;20023;-70
2023/12/25 03:46:31;;;;;;;1.02;0.40;;;9.30;99.90;;;;;;4961196;28;20067;-71
2023/12/25 03:48:56;;;;;;;1.35;0.40;;;9.30;99.90;;;;;;4952508;28;20388;-70
2023/12/25 03:51:22;;;;;;;1.70;0.80;;;9.30;99.90;;;;;;4972058;28;20043;-75
2023/12/25 03:53:47;;;;;;;0.65;0.38;;;9.20;99.90;;;;;;4956178;28;20023;-71
2023/12/25 03:56:17;;;;;;;3.40;0.55;;;9.20;99.90;;;;;;4963714;28;20031;-71
2023/12/25 03:58:43;;;;;;;0.57;0.43;;;9.10;99.90;;;;;;4970457;28;20032;-70
2023/12/25 04:01:09;;;;;;;1.92;0.63;;;9.20;99.90;;;;;;4972912;28;20051;-70
2023/12/25 04:03:35;;;;;;;1.23;0.40;;;9.10;99.90;;;;;;4961449;28;20064;-71
2023/12/25 04:06:00;;;;;;;0.82;0.60;;;9.10;99.90;;;;;;4966508;28;20019;-70
2023/12/25 04:08:26;;;;;;;0.98;0.70;;;9.10;99.90;;;;;;4972936;28;20031;-75
2023/12/25 04:10:51;;;;;;;1.35;0.60;;;9.20;99.90;;;;;;4966123;28;20436;-69
2023/12/25 04:13:17;;;;;;;1.20;0.65;;;9.20;99.90;;;;;;4970264;28;20034;-70
2023/12/25 04:15:42;;;;;;;1.40;0.80;;;9.10;99.90;;;;;;4967829;28;20651;-70
2023/12/25 04:18:08;;;;;;;1.63;0.77;;;9.20;99.90;;;;;;4966831;28;20085;-69
2023/12/25 04:20:34;;;;;;;1.35;0.70;;;9.20;99.90;;;;;;4962433;28;20090;-71
2023/12/25 04:22:59;;;;;;;3.60;0.65;;;9.10;99.90;;;;;;4967688;28;20135;-71
2023/12/25 04:25:25;;;;;;;1.63;0.60;;;9.20;99.90;;;;;;4972232;28;20026;-75
2023/12/25 04:27:51;;;;;;;1.40;0.55;;;9.20;99.90;;;;;;4956572;28;20027;-71
2023/12/25 04:30:17;;;;;;;2.42;0.75;;;9.00;99.90;;;;;;4964115;28;20032;-71
2023/12/25 04:32:43;;;;;;;1.63;0.77;;;8.90;99.90;;;;;;4969723;28;20043;-71
2023/12/25 04:35:08;;;;;;;0.30;0.30;;;8.80;99.90;;;;;;4961211;28;20051;-71
2023/12/25 04:37:34;;;;;;;2.40;0.45;;;8.80;99.90;;;;;;4961457;28;20031;-69
2023/12/25 04:39:59;;;;;;;0.70;0.35;;;9.00;99.90;;;;;;4966738;28;20377;-69
2023/12/25 04:42:25;;;;;;;1.40;0.40;;;8.80;99.90;;;;;;4963793;28;20042;-75
2023/12/25 04:44:50;;;;;;;1.55;0.80;;;8.70;99.90;;;;;;4957664;28;20031;-70
2023/12/25 04:47:16;;;;;;;1.52;0.30;;;8.70;99.90;;;;;;4966182;28;20041;-69
2023/12/25 04:49:41;;;;;;;1.02;0.45;;;8.60;99.90;;;;;;4967691;28;20051;-69
2023/12/25 04:52:07;;;;;;;1.27;0.80;;;8.60;99.90;;;;;;4966196;28;20031;-69
2023/12/25 04:54:33;;;;;;;3.97;1.00;;;8.60;99.90;;;;;;4958476;28;20090;-69
2023/12/25 04:56:58;;;;;;;0.43;0.38;;;8.60;99.90;;;;;;4967173;28;20483;-69
2023/12/25 04:59:24;;;;;;;0.60;0.50;;;8.70;99.90;;;;;;4969742;28;20030;-76
2023/12/25 05:01:50;;;;;;;0.77;0.45;;;8.70;99.90;;;;;;4953485;28;20027;-69
2023/12/25 05:04:16;;;;;;;0.70;0.45;;;8.70;99.90;;;;;;4960931;28;20027;-71
2023/12/25 05:06:42;;;;;;;1.65;0.52;;;8.60;99.90;;;;;;4968150;28;20027;-71
2023/12/25 05:09:08;;;;;;;1.73;0.70;;;8.60;99.90;;;;;;4971254;28;20054;-71
2023/12/25 05:11:34;;;;;;;1.17;0.30;;;8.70;99.90;;;;;;4967344;28;20051;-71
2023/12/25 05:14:00;;;;;;;1.50;0.50;;;8.60;99.90;;;;;;4963259;28;20023;-71
2023/12/25 05:16:25;;;;;;;0.95;0.38;;;8.60;99.90;;;;;;4970408;28;20580;-77
2023/12/25 05:18:51;;;;;;;0.63;0.30;;;8.70;99.90;;;;;;4965679;28;20423;-70
2023/12/25 05:21:17;;;;;;;0.85;0.73;;;8.60;99.90;;;;;;4963852;28;20412;-69
2023/12/25 05:23:42;;;;;;;1.35;0.60;;;8.40;99.90;;;;;;4966428;28;20027;-69
2023/12/25 05:26:08;;;;;;;1.20;0.50;;;8.40;99.90;;;;;;4966701;28;20034;-69
2023/12/25 05:28:35;;;;;;;1.40;0.40;;;8.30;99.90;;;;;;4957602;28;20108;-70
2023/12/25 05:31:00;;;;;;;0.70;0.43;;;8.20;99.90;;;;;;4966729;28;20034;-70
2023/12/25 05:33:26;;;;;;;0.40;0.40;;;8.30;99.90;;;;;;4969565;28;20029;-73
2023/12/25 05:35:51;;;;;;;0.43;0.38;;;8.60;99.90;;;;;;4961241;28;20066;-71
2023/12/25 05:38:17;;;;;;;1.10;0.52;;;8.60;99.90;;;;;;4966756;28;20035;-71
2023/12/25 05:40:42;;;;;;;0.75;0.50;;;8.60;99.90;;;;;;4974834;28;20041;-71
2023/12/25 05:43:10;;;;;;;1.08;0.60;;;8.60;99.90;;;;;;4977953;28;20403;-75
2023/12/25 05:45:39;;;;;;;2.22;0.50;;;8.60;99.90;;;;;;4965681;28;20038;-71
2023/12/25 05:48:06;;;;;;;0.68;0.40;;;8.60;99.90;;;;;;4969162;28;20031;-68
2023/12/25 05:50:31;;;;;;;2.78;1.42;;;8.60;99.90;;;;;;4976465;28;20109;-71
2023/12/25 05:52:57;;;;;;;2.45;1.15;;;8.60;99.90;;;;;;4971840;28;20106;-71
2023/12/25 05:55:23;;;;;;;1.40;0.90;;;8.60;99.90;;;;;;4969645;28;20022;-77
2023/12/25 05:57:49;;;;;;;1.13;0.60;;;8.70;99.90;;;;;;4970963;28;20024;-70
2023/12/25 06:00:15;;;;;;;0.98;0.45;;;8.80;99.90;;;;;;4971780;28;20042;-70
2023/12/25 06:02:40;;;;;;;1.13;0.40;;;8.80;99.90;;;;;;4962859;28;20465;-71
2023/12/25 06:05:06;;;;;;;1.58;0.50;;;8.90;99.90;;;;;;4971979;28;20110;-70
2023/12/25 06:07:32;;;;;;;0.75;0.40;;;8.90;99.90;;;;;;4972876;28;20038;-70
2023/12/25 06:09:58;;;;;;;2.17;0.40;;;8.90;99.90;;;;;;4978277;28;20043;-71
2023/12/25 06:12:23;;;;;;;0.50;0.47;;;8.90;99.90;;;;;;4969565;28;20031;-74
2023/12/25 06:14:49;;;;;;;1.25;0.40;;;8.90;99.90;;;;;;4972533;28;20106;-71
2023/12/25 06:17:14;;;;;;;1.48;0.63;;;9.00;99.90;;;;;;4976438;28;20089;-71
2023/12/25 06:19:40;;;;;;;0.73;0.50;;;9.10;99.90;;;;;;4973707;28;21150;-70
2023/12/25 06:22:06;;;;;;;2.08;1.02;;;9.10;99.90;;;;;;4965192;28;20034;-70
2023/12/25 06:24:32;;;;;;;2.88;0.70;;;9.20;99.90;;;;;;4977957;28;20027;-70
2023/12/25 06:26:57;;;;;;;1.42;0.50;;;9.30;99.90;;;;;;4971875;28;20388;-70
2023/12/25 06:29:23;;;;;;;1.38;0.50;;;9.30;99.90;;;;;;4968753;28;20085;-76
2023/12/25 06:31:48;;;;;;;1.10;0.40;;;9.30;99.90;;;;;;4966405;28;20028;-72
2023/12/25 06:34:14;;;;;;;0.55;0.35;;;9.30;99.90;;;;;;4972897;28;20102;-71
2023/12/25 06:36:40;;;;;;;0.88;0.65;;;9.30;99.90;;;;;;4970968;28;20136;-71
2023/12/25 06:39:05;;;;;;;0.65;0.47;;;9.30;99.90;;;;;;4967432;28;20030;-70
2023/12/25 06:41:31;;;;;;;0.82;0.40;;;9.20;99.90;;;;;;4970407;28;20034;-71
2023/12/25 06:43:57;;;;;;;1.55;0.60;;;9.20;99.90;;;;;;4972560;28;20023;-71
2023/12/25 06:46:22;;;;;;;1.42;0.57;;;9.20;99.90;;;;;;4959161;28;20027;-71
2023/12/25 06:48:48;;;;;;;2.47;0.50;;;9.20;99.90;;;;;;4967627;28;20125;-70
2023/12/25 06:51:13;;;;;;;1.20;0.73;;;9.20;99.90;;;;;;4972634;28;20532;-70
2023/12/25 06:53:39;;;;;;;0.60;0.50;;;9.20;99.90;;;;;;4960602;28;20102;-71
2023/12/25 06:56:07;;;;;;;1.15;0.43;;;9.20;99.90;;;;;;4964114;28;20094;-71
2023/12/25 06:58:33;;;;;;;0.65;0.52;;;9.30;99.90;;;;;;4963638;28;20023;-71
2023/12/25 07:01:00;;;;;;;0.52;0.40;;;9.30;99.90;;;;;;4962581;28;20053;-71
2023/12/25 07:03:26;;;;;;;0.80;0.80;;;9.40;99.90;;;;;;4958167;28;20124;-70
2023/12/25 07:05:52;;;;;;;0.65;0.40;;;9.40;99.90;;;;;;4966628;28;20023;-70
2023/12/25 07:08:17;;;;;;;0.50;0.50;;;9.50;99.90;;;;;;4966294;28;20028;-70
2023/12/25 07:10:46;;;;;;;0.57;0.40;;;9.40;99.90;;;;;;4965680;28;20042;-71
2023/12/25 07:13:11;;;;;;;0.30;0.30;;;9.40;99.90;;;;;;4967908;28;20486;-70
2023/12/25 07:15:38;;;;;;;0.85;0.45;;;9.40;99.90;;;;;;4970657;28;20047;-70
2023/12/25 07:18:05;;;;;;;1.17;0.77;;;9.40;99.90;;;;;;4972777;28;20023;-70
2023/12/25 07:20:30;;;;;;;1.55;0.50;;;9.30;99.90;;;;;;4967070;28;20023;-70
2023/12/25 07:22:56;;;;;;;0.45;0.45;;;9.30;99.90;;;;;;4970263;28;20069;-70
2023/12/25 07:25:22;;;;;;;0.82;0.60;;;9.30;99.90;;;;;;4974386;28;20475;-75
2023/12/25 07:27:47;;;;;;;0.70;0.40;;;9.20;99.90;;;;;;4959487;28;20110;-75
2023/12/25 07:30:13;;;;;;;0.65;0.43;;;9.20;99.90;;;;;;4968373;28;20077;-70
2023/12/25 07:32:40;;;;;;;0.75;0.63;;;9.20;99.90;;;;;;4964522;28;20389;-71
2023/12/25 07:35:07;;;;;;;2.10;0.43;;;9.20;99.90;;;;;;4969790;28;20085;-71
2023/12/25 07:37:32;;;;;;;0.73;0.60;;;9.20;99.90;;;;;;4964573;28;20031;-71
2023/12/25 07:39:58;;;;;;;1.42;0.60;;;9.10;99.90;;;;;;4964256;28;20042;-77
2023/12/25 07:42:23;;;;;;;4.68;1.08;;;9.10;99.90;;;;;;4965366;28;20062;-75
2023/12/25 07:44:49;;;;;;;1.40;0.52;;;9.10;99.90;;;;;;4963447;28;20428;-75
2023/12/25 07:47:15;;;;;;;2.00;0.82;;;9.10;99.90;;;;;;4970171;28;20483;-77
2023/12/25 07:49:40;;;;;;;2.88;0.73;;;9.10;99.90;;;;;;4964912;28;20050;-75
2023/12/25 07:52:06;;;;;;;1.80;0.82;;;9.10;99.90;;;;;;4968328;28;20038;-75
2023/12/25 07:54:31;;;;;;;2.10;0.50;;;9.10;99.90;;;;;;4972856;28;20054;-75
2023/12/25 07:56:57;;;;;;;1.40;0.70;;;9.10;99.90;;;;;;4964019;28;20038;-75
2023/12/25 07:59:22;;;;;;;3.33;0.60;;;9.20;99.90;;;;;;4957581;28;20023;-78
2023/12/25 08:01:48;;;;;;;1.20;0.75;;;9.30;99.90;;;;;;4959683;28;20031;-69
2023/12/25 08:04:14;;;;;;;0.52;0.50;;;9.30;99.90;;;;;;4972734;28;20031;-69
2023/12/25 08:06:39;;;;;;;1.05;0.73;;;9.40;99.90;;;;;;4962045;28;20121;-71
2023/12/25 08:09:05;;;;;;;0.85;0.50;;;9.40;99.90;;;;;;4960601;28;20031;-71
2023/12/25 08:11:30;;;;;;;1.58;0.60;;;9.50;99.90;;;;;;4971514;28;20039;-71
2023/12/25 08:13:56;;;;;;;1.13;0.52;;;9.60;99.90;;;;;;4965565;28;20029;-71
2023/12/25 08:16:22;;;;;;;0.55;0.55;;;9.50;99.90;;;;;;4959413;28;20384;-70
2023/12/25 08:18:47;;;;;;;1.02;0.50;;;9.60;99.90;;;;;;4954633;28;20035;-69
2023/12/25 08:21:13;;;;;;;1.33;0.50;;;9.60;99.90;;;;;;4964232;28;20031;-70
2023/12/25 08:23:40;;;;;;;1.80;0.50;;;9.70;99.90;;;;;;4963156;28;20026;-70
2023/12/25 08:26:06;;;;;;;0.98;0.57;;;9.80;99.90;;;;;;4966258;28;20023;-74
2023/12/25 08:28:31;;;;;;;0.88;0.50;;;9.70;99.90;;;;;;4963610;28;20086;-68
2023/12/25 08:30:57;;;;;;;2.13;0.80;;;9.70;99.90;;;;;;4966768;28;20046;-75
2023/12/25 08:33:23;;;;;;;0.80;0.40;;;9.80;99.90;;;;;;4964263;28;20019;-76
2023/12/25 08:35:50;;;;;;;1.73;0.93;;;9.80;99.90;;;;;;4963732;28;20079;-73
2023/12/25 08:38:15;;;;;;;0.77;0.65;;;9.80;99.90;;;;;;4966024;28;20038;-72
2023/12/25 08:40:41;;;;;;;1.30;0.50;;;9.80;99.90;;;;;;4965007;28;20039;-73
2023/12/25 08:43:07;;;;;;;0.85;0.82;;;9.80;99.90;;;;;;4956643;28;20035;-73
2023/12/25 08:45:32;;;;;;;0.60;0.52;;;9.90;99.90;;;;;;4959462;28;20419;-72
2023/12/25 08:47:58;;;;;;;0.75;0.50;;;10.00;99.90;;;;;;4969734;28;20042;-74
2023/12/25 08:50:23;;;;;;;0.75;0.40;;;10.10;99.90;;;;;;4967130;28;20046;-74
2023/12/25 08:52:49;;;;;;;2.83;0.70;;;10.20;99.90;;;;;;4963535;28;20089;-74
2023/12/25 08:55:14;;;;;;;1.15;0.52;;;10.20;99.90;;;;;;4962645;28;20054;-77
2023/12/25 08:57:40;;;;;;;0.68;0.60;;;10.30;99.90;;;;;;4969716;28;20089;-74
2023/12/25 09:00:07;;;;;;;12.10;3.15;;;10.40;99.90;;;;;;4969697;28;20027;-72
2023/12/25 09:02:33;;;;;;;3.20;0.60;;;10.50;99.90;;;;;;4967939;28;20093;-73
2023/12/25 09:04:58;;;;;;;2.53;0.70;;;10.50;99.90;;;;;;4969869;28;20026;-72
2023/12/25 09:07:24;;;;;;;0.98;0.63;;;10.60;99.90;;;;;;4966510;28;20483;-73
2023/12/25 09:09:50;;;;;;;0.75;0.50;;;10.60;99.90;;;;;;4967937;28;20098;-73
2023/12/25 09:12:16;;;;;;;0.65;0.50;;;10.60;99.90;;;;;;4957223;28;20550;-72
2023/12/25 09:14:42;;;;;;;1.88;0.50;;;10.60;99.90;;;;;;4960731;28;20113;-72
2023/12/25 09:17:08;;;;;;;1.20;0.57;;;10.60;99.90;;;;;;4963050;28;20043;-72
2023/12/25 09:19:34;;;;;;;1.92;0.57;;;10.60;99.90;;;;;;4962829;28;20026;-73
2023/12/25 09:21:59;;;;;;;1.17;0.60;;;10.70;99.90;;;;;;4965776;28;20034;-73
2023/12/25 09:24:25;;;;;;;1.65;0.63;;;10.70;99.90;;;;;;4969533;28;20022;-72
2023/12/25 09:26:52;;;;;;;1.23;0.50;;;10.70;99.90;;;;;;4969232;28;20420;-73
2023/12/25 09:29:21;;;;;;;0.57;0.57;;;10.70;99.90;;;;;;4971533;28;20114;-73
2023/12/25 09:31:46;;;;;;;0.90;0.47;;;10.70;99.90;;;;;;4956178;28;20106;-73
2023/12/25 09:34:12;;;;;;;0.80;0.63;;;10.80;99.90;;;;;;4969866;28;20026;-72
2023/12/25 09:36:37;;;;;;;0.98;0.68;;;10.80;99.90;;;;;;4965866;28;20118;-74
2023/12/25 09:39:03;;;;;;;1.75;0.35;;;10.90;99.90;;;;;;4971616;28;20035;-72
2023/12/25 09:41:32;;;;;;;0.73;0.63;;;11.00;99.90;;;;;;4966655;28;20122;-73
2023/12/25 09:44:00;;;;;;;1.10;0.50;;;11.10;99.90;;;;;;4970828;28;20022;-73
2023/12/25 09:46:26;;;;;;;3.35;0.50;;;11.20;99.90;;;;;;4960477;28;20035;-73
2023/12/25 09:48:54;;;;;;;1.23;0.70;;;11.20;99.90;;;;;;4966791;28;20027;-69
2023/12/25 09:51:21;;;;;;;1.20;0.52;;;11.20;99.90;;;;;;4966777;28;20034;-72
2023/12/25 09:53:47;;;;;;;0.75;0.70;;;11.20;99.90;;;;;;4964736;28;20030;-72
2023/12/25 09:56:14;;;;;;;1.10;0.70;;;11.20;99.90;;;;;;4971244;28;20023;-73
2023/12/25 09:58:41;;;;;;;1.85;1.02;;;11.20;99.90;;;;;;4969840;28;20085;-73
2023/12/25 10:01:07;;;;;;;0.68;0.60;;;11.20;99.90;;;;;;4968681;28;20035;-72
2023/12/25 10:03:40;;;;;;;0.82;0.70;;;11.20;99.90;;;;;;4962589;28;20034;-72
2023/12/25 10:06:06;;;;;;;0.75;0.63;;;11.20;99.90;;;;;;4971137;28;20392;-73
2023/12/25 10:08:32;;;;;;;2.28;0.60;;;11.20;99.90;;;;;;4963234;28;20030;-73
2023/12/25 10:10:57;;;;;;;0.63;0.40;;;11.20;99.90;;;;;;4963980;28;20451;-73
2023/12/25 10:13:25;;;;;;;0.63;0.50;;;11.20;99.90;;;;;;4957830;28;20183;-73
2023/12/25 10:15:51;;;;;;;1.35;0.95;;;11.20;99.90;;;;;;4969506;28;20092;-72
2023/12/25 10:18:18;;;;;;;0.65;0.57;;;11.10;99.90;;;;;;4960255;28;20045;-71
2023/12/25 10:20:56;;;;;;;1.13;0.65;;;11.10;99.90;;;;;;4969974;28;20030;-72
2023/12/25 10:23:27;;;;;;;1.17;0.73;;;11.20;99.90;;;;;;4970731;28;20023;-73
2023/12/25 10:25:53;;;;;;;0.68;0.57;;;11.20;99.90;;;;;;4974864;28;20030;-76
2023/12/25 10:28:19;;;;;;;2.65;0.50;;;11.20;99.90;;;;;;4964535;28;20031;-77
2023/12/25 10:30:44;;;;;;;1.77;0.80;;;11.20;99.90;;;;;;4973117;28;20031;-74
2023/12/25 10:33:14;;;;;;;3.15;0.43;;;11.20;99.90;;;;;;4974444;28;20369;-69
2023/12/25 10:35:41;;;;;;;0.43;0.43;;;11.30;99.90;;;;;;4972494;28;20487;-70
2023/12/25 10:38:07;;;;;;;1.45;0.45;;;11.30;99.90;;;;;;4970409;28;20043;-72
2023/12/25 10:40:34;;;;;;;0.95;0.40;;;11.20;99.90;;;;;;4966466;28;20105;-73
2023/12/25 10:43:00;;;;;;;0.63;0.40;;;11.40;99.90;;;;;;4960811;28;20106;-77
2023/12/25 10:45:26;;;;;;;0.77;0.52;;;11.50;99.90;;;;;;4965817;28;20475;-72
2023/12/25 10:48:02;;;;;;;1.42;0.50;;;11.50;99.90;;;;;;4965315;28;20110;-73
2023/12/25 10:50:30;;;;;;;2.63;0.65;;;;;;;;;;4965437;28;20023;-72
2023/12/25 10:53:03;;;;;;;2.90;0.60;;;11.80;99.90;;;;;;4962472;28;20117;-72
2023/12/25 10:55:43;;;;;;;0.93;0.60;;;11.90;99.90;;;;;;4964964;28;20424;-75
2023/12/25 10:58:12;;;;;;;0.98;0.65;;;12.00;99.90;;;;;;4964469;28;20024;-73
2023/12/25 11:00:57;;;;;;;0.68;0.30;;;12.20;99.90;;;;;;4964543;28;20027;-73
2023/12/25 11:03:22;;;;;;;1.10;0.30;;;12.40;99.90;;;;;;4963724;28;20019;-74
2023/12/25 11:05:49;;;;;;;2.78;0.43;;;12.50;99.90;;;;;;4968204;28;20469;-71
2023/12/25 11:08:17;;;;;;;0.70;0.40;;;;;;;;;;4964687;28;20019;-71
2023/12/25 11:10:43;;;;;;;2.53;0.73;;;12.80;99.90;;;;;;4959078;28;20026;-72
2023/12/25 11:13:09;;;;;;;1.52;0.77;;;12.80;99.90;;;;;;4968131;28;20043;-70
2023/12/25 11:15:35;;;;;;;0.95;0.43;;;12.90;99.90;;;;;;4962131;28;20047;-70
2023/12/25 11:18:01;;;;;;;0.50;0.30;;;13.00;99.90;;;;;;4966911;28;20027;-71
2023/12/25 11:20:29;;;;;;;1.08;0.50;;;13.00;99.90;;;;;;4964333;28;20460;-71
2023/12/25 11:22:57;;;;;;;0.70;0.30;;;13.10;99.90;;;;;;4965186;28;20031;-70
2023/12/25 11:25:25;;;;;;;0.95;0.38;;;13.10;99.90;;;;;;4963362;28;20046;-71
2023/12/25 11:27:55;;;;;;;3.03;0.73;;;13.00;99.90;;;;;;4963042;28;20082;-72
2023/12/25 11:30:24;;;;;;;1.77;0.45;;;12.90;99.90;;;;;;4966882;28;20027;-73
2023/12/25 11:32:51;;;;;;;1.75;0.50;;;12.90;99.90;;;;;;4967129;28;20041;-73
2023/12/25 11:35:29;;;;;;;1.13;0.50;;;12.80;99.90;;;;;;4976810;28;20030;-72
2023/12/25 11:38:16;;;;;;;0.50;0.30;;;12.80;99.90;;;;;;4975539;28;20023;-72
2023/12/25 11:40:43;;;;;;;0.70;0.40;;;12.80;99.90;;;;;;4977874;28;20031;-73
2023/12/25 11:43:09;;;;;;;1.88;0.80;;;12.70;99.90;;;;;;4970272;28;20073;-70
2023/12/25 11:45:42;;;;;;;1.65;0.40;;;12.60;99.90;;;;;;4963536;28;20054;-72
2023/12/25 11:48:10;;;;;;;2.28;0.50;;;12.60;99.90;;;;;;4963959;28;20031;-74
2023/12/25 11:50:36;;;;;;;0.35;0.20;;;12.60;99.90;;;;;;4969296;28;20480;-73
2023/12/25 11:53:02;;;;;;;1.08;0.50;;;12.60;99.90;;;;;;4962044;28;20039;-74
2023/12/25 11:55:28;;;;;;;1.35;0.30;;;12.50;99.90;;;;;;4964221;28;20050;-72
2023/12/25 11:57:53;;;;;;;0.50;0.40;;;12.50;99.90;;;;;;4967209;28;20020;-75
2023/12/25 12:00:31;;;;;;;1.65;0.52;;;12.50;99.90;;;;;;4968353;28;20044;-72
2023/12/25 12:02:57;;;;;;;1.35;0.60;;;12.40;99.90;;;;;;4962692;28;20027;-73
2023/12/25 12:05:23;;;;;;;2.13;0.40;;;12.40;99.90;;;;;;4970591;28;20027;-72
2023/12/25 12:07:49;;;;;;;1.40;0.60;;;12.40;99.90;;;;;;4962580;28;20388;-71
2023/12/25 12:10:14;;;;;;;0.60;0.25;;;12.40;99.90;;;;;;4970202;28;20027;-71
2023/12/25 12:12:41;;;;;;;0.32;0.32;;;12.40;99.90;;;;;;4959346;28;20030;-72
2023/12/25 12:15:08;;;;;;;0.95;0.50;;;12.30;99.90;;;;;;4968551;28;20043;-85
2023/12/25 12:17:36;;;;;;;1.27;0.28;;;12.40;99.90;;;;;;4967629;28;20366;-76
2023/12/25 12:20:04;;;;;;;0.73;0.30;;;12.30;99.90;;;;;;4957550;28;20134;-76
2023/12/25 12:22:32;;;;;;;2.05;0.50;;;12.30;99.90;;;;;;4963603;28;20387;-80
2023/12/25 12:25:20;;;;;;;1.27;0.80;;;12.20;99.90;;;;;;4968487;28;20480;-78
2023/12/25 12:27:46;;;;;;;1.08;0.50;;;12.20;99.90;;;;;;4956561;28;20097;-81
2023/12/25 12:30:12;;;;;;;0.95;0.40;;;12.10;99.90;;;;;;4960606;28;20110;-78
2023/12/25 12:32:40;;;;;;;0.47;0.47;;;12.00;99.90;;;;;;4962088;28;20024;-78
2023/12/25 12:35:07;;;;;;;0.32;0.30;;;12.00;99.90;;;;;;4963328;28;20035;-77
2023/12/25 12:37:34;;;;;;;0.75;0.52;;;12.00;99.90;;;;;;4962605;28;20031;-74
2023/12/25 12:40:06;;;;;;;0.60;0.35;;;12.00;99.90;;;;;;4965546;28;20023;-76
2023/12/25 12:42:33;;;;;;;0.55;0.47;;;11.90;99.90;;;;;;4960170;28;20042;-74
2023/12/25 12:45:01;;;;;;;1.13;0.40;;;11.90;99.90;;;;;;4956400;28;20039;-74
2023/12/25 12:47:26;;;;;;;1.23;0.45;;;11.90;99.90;;;;;;4962227;28;20031;-75